Terminal Aerodrome Forecast
Issued by NWS

Home | Current Version | Previous Version | Text Only | Print | Product List | Glossary On
Versions: 1 2 3 4 5 6 7 8 9 10 11 12
863
FTUS43 KDLH 222332
TAFHYR
TAF
KHYR 222332Z 2300/2324 20008KT P6SM SKC
     FM230100 VRB04KT P6SM FEW200
     FM231800 21007KT P6SM SCT200=

USA.gov is the U.S. government's official web portal to all federal, state and local government web resources and services.